createdAt,value
2023-01-10T00:00:44.135Z,7.53
2023-01-10T00:03:13.125Z,7.93
2023-01-10T00:05:40.059Z,7.50
2023-01-10T00:08:07.245Z,7.47
2023-01-10T00:10:34.428Z,6.90
2023-01-10T00:13:19.658Z,6.67
2023-01-10T00:15:46.566Z,6.77
2023-01-10T00:18:13.061Z,6.80
2023-01-10T00:20:39.581Z,6.60
2023-01-10T00:23:06.006Z,6.27
2023-01-10T00:25:36.294Z,6.67
2023-01-10T00:28:10.826Z,6.63
2023-01-10T00:30:38.284Z,6.67
2023-01-10T00:33:05.989Z,6.50
2023-01-10T00:35:35.251Z,6.57
2023-01-10T00:38:05.755Z,7.93
2023-01-10T00:40:33.150Z,7.97
2023-01-10T00:43:18.293Z,8.37
2023-01-10T00:45:47.764Z,7.27
2023-01-10T00:48:14.702Z,7.60
2023-01-10T00:50:41.200Z,7.30
2023-01-10T00:53:08.013Z,7.87
2023-01-10T00:55:35.040Z,7.73
2023-01-10T00:58:01.535Z,7.63
2023-01-10T01:00:33.858Z,6.97
2023-01-10T01:03:00.336Z,6.50
2023-01-10T01:05:27.363Z,6.53
2023-01-10T01:07:53.786Z,5.80
2023-01-10T01:10:26.430Z,5.40
2023-01-10T01:12:56.985Z,5.40
2023-01-10T01:15:24.068Z,5.17
2023-01-10T01:17:50.620Z,5.00
2023-01-10T01:20:17.130Z,5.00
2023-01-10T01:22:43.615Z,4.80
2023-01-10T01:25:10.028Z,4.93
2023-01-10T01:27:38.149Z,5.20
2023-01-10T01:30:11.598Z,4.80
2023-01-10T01:32:38.526Z,4.63
2023-01-10T01:35:05.748Z,4.90
2023-01-10T01:37:32.264Z,4.67
2023-01-10T01:39:58.719Z,5.03
2023-01-10T01:42:32.126Z,4.30
2023-01-10T01:45:17.140Z,4.93
2023-01-10T01:47:45.318Z,5.20
2023-01-10T01:50:19.766Z,5.83
2023-01-10T01:52:47.496Z,5.63
2023-01-10T01:55:13.936Z,5.97
2023-01-10T01:57:40.411Z,6.50
2023-01-10T02:00:07.214Z,7.00
2023-01-10T02:02:36.520Z,7.23
2023-01-10T02:05:08.659Z,6.87
2023-01-10T02:07:37.529Z,6.77
2023-01-10T02:10:11.094Z,4.83
2023-01-10T02:12:37.785Z,4.97
2023-01-10T02:15:04.422Z,4.70
2023-01-10T02:17:30.938Z,4.60
2023-01-10T02:20:03.717Z,4.77
2023-01-10T02:22:45.533Z,5.00
2023-01-10T02:25:14.749Z,4.80
2023-01-10T02:27:44.276Z,4.37
2023-01-10T02:30:33.803Z,5.10
2023-01-10T02:33:05.804Z,4.20
2023-01-10T02:35:44.552Z,4.33
2023-01-10T02:38:21.717Z,4.50
2023-01-10T02:40:58.353Z,4.30
2023-01-10T02:43:29.199Z,4.20
2023-01-10T02:46:00.869Z,3.83
2023-01-10T02:48:27.412Z,4.23
2023-01-10T02:50:59.241Z,3.90
2023-01-10T02:53:45.954Z,4.07
2023-01-10T02:56:31.217Z,4.30
2023-01-10T02:59:08.457Z,4.60
2023-01-10T03:01:43.874Z,4.87
2023-01-10T03:04:43.364Z,4.50
2023-01-10T03:07:12.442Z,3.70
2023-01-10T03:09:44.715Z,3.87
2023-01-10T03:12:14.598Z,4.57
2023-01-10T03:14:41.637Z,4.17
2023-01-10T03:17:10.929Z,3.70
2023-01-10T03:19:49.852Z,3.73
2023-01-10T03:22:17.339Z,3.20
2023-01-10T03:24:46.865Z,3.50
2023-01-10T03:27:19.345Z,3.40
2023-01-10T03:29:50.780Z,3.23
2023-01-10T03:32:18.943Z,3.67
2023-01-10T03:34:45.830Z,3.87
2023-01-10T03:37:24.186Z,3.60
2023-01-10T03:40:05.107Z,3.33
2023-01-10T03:42:56.242Z,3.87
2023-01-10T03:45:26.914Z,3.60
2023-01-10T03:47:55.267Z,3.57
2023-01-10T03:50:23.794Z,4.00
2023-01-10T03:52:50.257Z,3.53
2023-01-10T03:55:21.618Z,3.97
2023-01-10T03:57:49.023Z,3.83
2023-01-10T04:00:16.060Z,3.97
2023-01-10T04:02:43.061Z,3.93
2023-01-10T04:05:09.645Z,4.13
2023-01-10T04:07:36.232Z,3.87
2023-01-10T04:10:03.730Z,3.63
2023-01-10T04:12:30.143Z,3.90
2023-01-10T04:14:56.598Z,4.00
2023-01-10T04:17:23.025Z,4.20
2023-01-10T04:19:49.552Z,4.03
2023-01-10T04:22:16.155Z,4.00
2023-01-10T04:24:44.312Z,4.20
2023-01-10T04:27:10.878Z,4.37
2023-01-10T04:29:37.364Z,4.03
2023-01-10T04:32:03.834Z,4.00
2023-01-10T04:34:30.316Z,3.70
2023-01-10T04:36:56.801Z,3.27
2023-01-10T04:39:23.253Z,3.60
2023-01-10T04:41:49.948Z,3.17
2023-01-10T04:44:16.379Z,3.70
2023-01-10T04:46:42.817Z,3.50
2023-01-10T04:49:09.721Z,3.50
2023-01-10T04:51:36.176Z,3.50
2023-01-10T04:54:02.616Z,3.93
2023-01-10T04:56:29.093Z,25.47
2023-01-10T04:58:56.301Z,8.20
2023-01-10T05:01:23.638Z,8.20
2023-01-10T05:03:50.769Z,6.80
2023-01-10T05:06:17.857Z,4.77
2023-01-10T05:08:44.760Z,4.80
2023-01-10T05:11:11.472Z,4.40
2023-01-10T05:13:37.953Z,4.67
2023-01-10T05:16:04.709Z,4.47
2023-01-10T05:18:31.131Z,4.17
2023-01-10T05:21:01.563Z,4.37
2023-01-10T05:23:28.680Z,4.90
2023-01-10T05:25:55.435Z,5.00
2023-01-10T05:28:22.277Z,4.30
2023-01-10T05:30:48.894Z,5.37
2023-01-10T05:33:15.387Z,4.30
2023-01-10T05:35:41.888Z,3.67
2023-01-10T05:38:08.451Z,4.10
2023-01-10T05:40:34.909Z,4.60
2023-01-10T05:43:01.470Z,3.97
2023-01-10T05:45:27.918Z,4.37
2023-01-10T05:47:54.373Z,5.30
2023-01-10T05:50:20.893Z,6.33
2023-01-10T05:52:47.424Z,6.00
2023-01-10T05:55:13.860Z,7.70
2023-01-10T05:57:40.322Z,5.83
2023-01-10T06:00:07.151Z,5.20
2023-01-10T06:02:33.658Z,5.17
2023-01-10T06:05:00.285Z,3.83
2023-01-10T06:07:26.811Z,4.30
2023-01-10T06:09:53.275Z,4.70
2023-01-10T06:12:19.795Z,5.10
2023-01-10T06:14:46.242Z,3.90
2023-01-10T06:17:13.132Z,3.63
2023-01-10T06:19:39.626Z,3.67
2023-01-10T06:22:06.039Z,3.70
2023-01-10T06:24:32.495Z,4.23
2023-01-10T06:26:59.125Z,3.67
2023-01-10T06:29:25.571Z,3.70
2023-01-10T06:31:51.991Z,4.20
2023-01-10T06:34:18.524Z,3.90
2023-01-10T06:36:45.026Z,3.80
2023-01-10T06:39:11.498Z,4.40
2023-01-10T06:41:37.996Z,4.63
2023-01-10T06:44:04.438Z,5.63
2023-01-10T06:46:30.882Z,13.97
2023-01-10T06:48:57.341Z,6.30
2023-01-10T06:51:23.766Z,5.53
2023-01-10T06:53:50.211Z,5.30
2023-01-10T06:56:16.687Z,5.67
2023-01-10T06:58:43.226Z,5.90
2023-01-10T07:01:18.092Z,5.27
2023-01-10T07:03:44.771Z,6.53
2023-01-10T07:06:11.442Z,6.00
2023-01-10T07:08:42.034Z,5.30
2023-01-10T07:11:09.120Z,5.33
2023-01-10T07:13:35.999Z,6.00
2023-01-10T07:16:12.792Z,6.47
2023-01-10T07:18:40.254Z,5.07
2023-01-10T07:21:07.002Z,4.53
2023-01-10T07:23:33.970Z,4.73
2023-01-10T07:26:03.075Z,5.07
2023-01-10T07:28:29.601Z,4.73
2023-01-10T07:30:58.720Z,7.07
2023-01-10T07:33:25.176Z,8.87
2023-01-10T07:35:51.620Z,10.43
2023-01-10T07:38:18.161Z,11.10
2023-01-10T07:40:44.687Z,10.00
2023-01-10T07:43:11.097Z,11.03
2023-01-10T07:45:37.543Z,10.83
2023-01-10T07:48:05.154Z,11.63
2023-01-10T07:50:33.241Z,11.77
2023-01-10T07:53:00.232Z,9.57
2023-01-10T07:55:27.755Z,10.33
2023-01-10T07:57:54.499Z,11.30
2023-01-10T08:00:21.099Z,11.07
2023-01-10T08:02:47.819Z,13.67
2023-01-10T08:05:14.813Z,16.50
2023-01-10T08:07:41.326Z,20.73
2023-01-10T08:10:08.251Z,21.07
2023-01-10T08:12:34.969Z,17.53
2023-01-10T08:15:01.509Z,20.53
2023-01-10T08:17:27.944Z,18.87
2023-01-10T08:19:54.410Z,18.73
2023-01-10T08:22:20.870Z,17.93
2023-01-10T08:24:47.344Z,17.07
2023-01-10T08:27:13.794Z,17.40
2023-01-10T08:29:40.293Z,18.07
2023-01-10T08:32:06.737Z,17.37
2023-01-10T08:34:33.226Z,17.83
2023-01-10T08:36:59.692Z,16.63
2023-01-10T08:39:26.854Z,14.87
2023-01-10T08:41:53.524Z,13.00
2023-01-10T08:44:20.103Z,13.00
2023-01-10T08:46:46.846Z,13.90
2023-01-10T08:49:13.418Z,14.47
2023-01-10T08:51:39.886Z,15.57
2023-01-10T08:54:06.447Z,16.87
2023-01-10T08:56:32.968Z,16.27
2023-01-10T08:58:59.411Z,19.33
2023-01-10T09:01:25.966Z,14.33
2023-01-10T09:03:52.532Z,26.47
2023-01-10T09:06:19.058Z,18.50
2023-01-10T09:08:45.491Z,14.23
2023-01-10T09:11:11.934Z,13.33
2023-01-10T09:13:40.191Z,12.20
2023-01-10T09:16:06.828Z,11.93
2023-01-10T09:18:34.197Z,12.83
2023-01-10T09:21:01.289Z,13.37
2023-01-10T09:23:27.807Z,12.80
2023-01-10T09:25:55.889Z,13.20
2023-01-10T09:28:24.304Z,13.30
2023-01-10T09:30:51.170Z,14.40
2023-01-10T09:33:17.661Z,14.23
2023-01-10T09:35:44.605Z,15.43
2023-01-10T09:38:12.210Z,15.23
2023-01-10T09:40:53.795Z,16.20
2023-01-10T09:43:30.517Z,17.83
2023-01-10T09:46:02.220Z,18.07
2023-01-10T09:48:28.671Z,18.30
2023-01-10T09:51:24.659Z,18.47
2023-01-10T09:53:53.759Z,31.23
2023-01-10T09:56:22.393Z,21.73
2023-01-10T09:58:50.105Z,19.13
2023-01-10T10:01:18.525Z,18.43
2023-01-10T10:03:47.759Z,17.20
2023-01-10T10:06:14.648Z,16.43
2023-01-10T10:08:42.317Z,14.77
2023-01-10T10:11:26.654Z,14.93
2023-01-10T10:14:18.041Z,15.13
2023-01-10T10:16:53.412Z,13.30
2023-01-10T10:19:19.792Z,13.83
2023-01-10T10:21:46.209Z,13.40
2023-01-10T10:24:26.103Z,14.53
2023-01-10T10:26:52.491Z,15.77
2023-01-10T10:29:34.616Z,14.47
2023-01-10T10:32:07.358Z,13.90
2023-01-10T10:34:38.307Z,13.60
2023-01-10T10:37:10.820Z,14.23
2023-01-10T10:39:45.455Z,12.03
2023-01-10T10:42:13.374Z,11.17
2023-01-10T10:44:41.844Z,11.33
2023-01-10T10:47:13.984Z,13.53
2023-01-10T10:49:43.161Z,12.97
2023-01-10T10:52:17.046Z,13.57
2023-01-10T10:54:43.424Z,12.17
2023-01-10T10:57:11.932Z,9.23
2023-01-10T10:59:38.481Z,8.50
2023-01-10T11:02:16.830Z,12.43
2023-01-10T11:04:43.569Z,8.83
2023-01-10T11:07:12.760Z,9.53
2023-01-10T11:09:41.556Z,10.13
2023-01-10T11:12:14.208Z,11.30
2023-01-10T11:14:42.420Z,10.40
2023-01-10T11:17:40.978Z,9.63
2023-01-10T11:20:14.497Z,10.17
2023-01-10T11:22:46.389Z,10.50
2023-01-10T11:25:14.898Z,9.73
2023-01-10T11:27:47.096Z,10.53
2023-01-10T11:30:23.968Z,9.93
2023-01-10T11:32:54.689Z,9.97
2023-01-10T11:35:24.185Z,9.27
2023-01-10T11:37:58.730Z,9.27
2023-01-10T11:40:28.906Z,9.07
2023-01-10T11:42:59.001Z,9.07
2023-01-10T11:45:27.956Z,9.30
2023-01-10T11:48:08.285Z,9.80
2023-01-10T11:50:36.726Z,11.00
2023-01-10T11:53:04.061Z,10.60
2023-01-10T11:55:32.038Z,10.87
2023-01-10T11:58:09.660Z,10.97
2023-01-10T12:00:46.891Z,12.23
2023-01-10T12:03:32.829Z,15.10
2023-01-10T12:06:00.997Z,12.27
2023-01-10T12:08:31.488Z,12.43
2023-01-10T12:10:59.155Z,12.87
2023-01-10T12:13:28.080Z,18.23
2023-01-10T12:16:14.337Z,12.63
2023-01-10T12:18:40.731Z,17.93
2023-01-10T12:21:08.329Z,24.03
2023-01-10T12:23:40.388Z,26.47
2023-01-10T12:26:12.263Z,22.43
2023-01-10T12:28:41.298Z,24.23
2023-01-10T12:31:12.211Z,23.70
2023-01-10T12:33:51.454Z,17.87
2023-01-10T12:36:26.656Z,14.57
2023-01-10T12:39:05.491Z,14.20
2023-01-10T12:42:09.136Z,14.40
2023-01-10T12:44:35.626Z,15.70
2023-01-10T12:47:09.235Z,39.30
2023-01-10T12:49:38.928Z,20.90
2023-01-10T12:52:09.759Z,15.10
2023-01-10T12:54:36.313Z,14.47
2023-01-10T12:57:05.095Z,15.50
2023-01-10T12:59:40.123Z,14.07
2023-01-10T13:02:11.153Z,14.93
2023-01-10T13:04:38.242Z,16.83
2023-01-10T13:07:05.426Z,16.83
2023-01-10T13:09:32.520Z,21.27
2023-01-10T13:11:59.113Z,16.37
2023-01-10T13:14:35.577Z,16.40
2023-01-10T13:17:16.651Z,16.10
2023-01-10T13:19:43.095Z,15.37
2023-01-10T13:22:28.223Z,16.87
2023-01-10T13:24:55.723Z,15.10
2023-01-10T13:27:23.804Z,13.37
2023-01-10T13:29:51.162Z,13.60
2023-01-10T13:32:27.118Z,14.07
2023-01-10T13:34:53.856Z,14.07
2023-01-10T13:37:25.843Z,16.47
2023-01-10T13:39:57.263Z,11.83
2023-01-10T13:42:42.414Z,12.63
2023-01-10T13:45:12.054Z,15.77
2023-01-10T13:47:43.308Z,17.50
2023-01-10T13:50:25.057Z,15.97
2023-01-10T13:52:51.441Z,13.23
2023-01-10T13:55:55.786Z,13.10
2023-01-10T13:59:00.768Z,16.03
2023-01-10T14:01:56.318Z,16.67
2023-01-10T14:04:24.168Z,13.37
2023-01-10T14:06:58.903Z,24.47
2023-01-10T14:09:25.312Z,15.40
2023-01-10T14:11:53.319Z,14.57
2023-01-10T14:14:19.745Z,13.97
2023-01-10T14:16:48.302Z,12.97
2023-01-10T14:19:28.419Z,14.30
2023-01-10T14:21:56.371Z,14.07
2023-01-10T14:24:25.713Z,14.63
2023-01-10T14:26:55.342Z,13.60
2023-01-10T14:29:23.322Z,14.80
2023-01-10T14:31:52.888Z,15.00
2023-01-10T14:34:25.081Z,15.03
2023-01-10T14:36:59.049Z,16.00
2023-01-10T14:39:26.512Z,14.37
2023-01-10T14:41:54.928Z,14.40
2023-01-10T14:44:30.896Z,14.80
2023-01-10T14:46:58.284Z,12.33
2023-01-10T14:49:26.409Z,11.97
2023-01-10T14:52:16.331Z,12.93
2023-01-10T14:54:43.029Z,18.27
2023-01-10T14:57:19.651Z,14.00
2023-01-10T14:59:46.574Z,12.07
2023-01-10T15:02:23.152Z,11.63
2023-01-10T15:04:54.461Z,11.63
2023-01-10T15:07:23.023Z,12.30
2023-01-10T15:09:53.712Z,19.17
2023-01-10T15:12:21.277Z,19.37
2023-01-10T15:14:49.373Z,12.97
2023-01-10T15:17:20.518Z,14.73
2023-01-10T15:19:48.199Z,21.57
2023-01-10T15:22:28.927Z,24.57
2023-01-10T15:24:59.763Z,15.47
2023-01-10T15:27:26.513Z,17.93
2023-01-10T15:29:53.070Z,25.47
2023-01-10T15:32:32.794Z,46.33
2023-01-10T15:34:59.956Z,43.50
2023-01-10T15:37:33.984Z,31.07
2023-01-10T15:40:01.622Z,36.73
2023-01-10T15:42:28.390Z,40.63
2023-01-10T15:44:56.095Z,32.03
2023-01-10T15:47:49.728Z,25.10
2023-01-10T15:50:20.397Z,32.57
2023-01-10T15:52:48.520Z,30.50
2023-01-10T15:55:33.743Z,27.67
2023-01-10T15:58:01.440Z,35.90
2023-01-10T16:00:29.548Z,25.80
2023-01-10T16:02:56.561Z,15.17
2023-01-10T16:05:23.503Z,21.10
2023-01-10T16:07:50.192Z,23.60
2023-01-10T16:10:21.646Z,21.80
2023-01-10T16:13:07.043Z,15.37
2023-01-10T16:15:35.669Z,16.53
2023-01-10T16:18:02.397Z,14.70
2023-01-10T16:20:48.775Z,17.23
2023-01-10T16:23:17.492Z,21.47
2023-01-10T16:25:45.574Z,19.43
2023-01-10T16:28:12.741Z,19.83
2023-01-10T16:30:43.741Z,15.27
2023-01-10T16:33:11.611Z,13.47
2023-01-10T16:35:38.324Z,21.33
2023-01-10T16:38:04.874Z,67.07
2023-01-10T16:40:38.963Z,99.53
2023-01-10T16:43:17.931Z,53.20
2023-01-10T16:45:44.415Z,83.07
2023-01-10T16:48:11.249Z,46.23
2023-01-10T16:50:38.115Z,136.13
2023-01-10T16:53:06.295Z,50.30
2023-01-10T16:55:39.074Z,80.57
2023-01-10T16:58:05.669Z,34.60
2023-01-10T17:00:32.269Z,64.13
2023-01-10T17:02:59.276Z,32.40
2023-01-10T17:05:25.819Z,28.67
2023-01-10T17:07:52.291Z,23.27
2023-01-10T17:10:19.009Z,21.43
2023-01-10T17:12:45.798Z,20.47
2023-01-10T17:15:14.128Z,18.43
2023-01-10T17:17:44.390Z,14.90
2023-01-10T17:20:12.001Z,17.80
2023-01-10T17:22:38.629Z,19.63
2023-01-10T17:25:05.322Z,17.27
2023-01-10T17:27:31.951Z,16.40
2023-01-10T17:29:58.837Z,16.33
2023-01-10T17:32:25.253Z,17.80
2023-01-10T17:34:51.881Z,18.10
2023-01-10T17:37:18.515Z,19.27
2023-01-10T17:39:45.009Z,18.67
2023-01-10T17:42:18.884Z,18.73
2023-01-10T17:44:45.699Z,28.77
2023-01-10T17:47:14.999Z,40.80
2023-01-10T17:52:30.626Z,22.07
2023-01-10T17:54:59.481Z,48.23
2023-01-10T17:57:26.235Z,40.40
2023-01-10T18:00:08.310Z,63.33
2023-01-10T18:02:36.467Z,54.53
2023-01-10T18:05:03.606Z,51.87
2023-01-10T18:07:30.285Z,36.00
2023-01-10T18:09:58.127Z,24.70
2023-01-10T18:12:24.689Z,22.10
2023-01-10T18:14:51.468Z,18.90
2023-01-10T18:17:19.315Z,21.07
2023-01-10T18:19:46.116Z,30.57
2023-01-10T18:22:31.711Z,28.93
2023-01-10T18:24:58.517Z,54.73
2023-01-10T18:27:25.567Z,39.63
2023-01-10T18:29:52.574Z,45.80
2023-01-10T18:32:19.920Z,38.03
2023-01-10T18:34:49.401Z,22.97
2023-01-10T18:37:19.733Z,32.63
2023-01-10T18:39:47.491Z,25.03
2023-01-10T18:42:14.582Z,33.20
2023-01-10T18:44:41.547Z,34.20
2023-01-10T18:47:08.504Z,30.83
2023-01-10T18:49:38.743Z,23.10
2023-01-10T18:52:06.680Z,36.03
2023-01-10T18:54:33.601Z,43.60
2023-01-10T18:57:00.333Z,31.17
2023-01-10T18:59:27.320Z,53.00
2023-01-10T19:01:54.059Z,37.77
2023-01-10T19:04:20.894Z,30.53
2023-01-10T19:06:47.840Z,38.07
2023-01-10T19:09:14.670Z,47.40
2023-01-10T19:11:41.494Z,26.33
2023-01-10T19:14:08.338Z,37.60
2023-01-10T19:16:35.253Z,38.07
2023-01-10T19:19:09.325Z,33.80
2023-01-10T19:21:41.234Z,26.70
2023-01-10T19:24:19.639Z,31.57
2023-01-10T19:26:46.513Z,23.40
2023-01-10T19:29:13.245Z,24.93
2023-01-10T19:31:40.173Z,26.20
2023-01-10T19:34:07.257Z,19.63
2023-01-10T19:36:35.884Z,22.70
2023-01-10T19:39:03.056Z,23.50
2023-01-10T19:41:30.026Z,19.50
2023-01-10T19:44:00.868Z,17.00
2023-01-10T19:46:28.241Z,22.00
2023-01-10T19:48:55.531Z,24.00
2023-01-10T19:51:22.316Z,15.93
2023-01-10T19:53:49.299Z,18.77
2023-01-10T19:56:19.784Z,20.57
2023-01-10T19:58:46.690Z,15.93
2023-01-10T20:01:17.716Z,16.17
2023-01-10T20:03:47.703Z,13.87
2023-01-10T20:06:17.231Z,14.43
2023-01-10T20:08:44.522Z,11.57
2023-01-10T20:11:11.351Z,9.60
2023-01-10T20:13:42.131Z,15.33
2023-01-10T20:16:08.858Z,10.70
2023-01-10T20:18:35.650Z,9.67
2023-01-10T20:21:08.084Z,8.37
2023-01-10T20:23:39.014Z,8.03
2023-01-10T20:26:07.450Z,8.87
2023-01-10T20:28:34.507Z,8.83
2023-01-10T20:31:01.442Z,10.80
2023-01-10T20:33:28.799Z,12.03
2023-01-10T20:35:59.863Z,12.93
2023-01-10T20:38:27.492Z,11.43
2023-01-10T20:40:58.966Z,13.20
2023-01-10T20:43:25.928Z,14.23
2023-01-10T20:45:52.788Z,13.20
2023-01-10T20:48:19.691Z,12.37
2023-01-10T20:50:47.379Z,13.60
2023-01-10T20:53:17.013Z,12.77
2023-01-10T20:55:46.803Z,11.93
2023-01-10T20:58:17.599Z,12.77
2023-01-10T21:00:44.440Z,16.67
2023-01-10T21:03:11.236Z,13.93
2023-01-10T21:05:39.499Z,16.83
2023-01-10T21:08:06.533Z,19.03
2023-01-10T21:10:33.358Z,14.73
2023-01-10T21:13:00.017Z,13.57
2023-01-10T21:15:26.929Z,12.93
2023-01-10T21:17:53.668Z,13.50
2023-01-10T21:20:20.724Z,12.67
2023-01-10T21:22:47.352Z,12.63
2023-01-10T21:25:14.263Z,11.60
2023-01-10T21:27:41.057Z,12.60
2023-01-10T21:30:09.184Z,12.23
2023-01-10T21:32:35.755Z,12.63
2023-01-10T21:35:02.400Z,11.43
2023-01-10T21:37:29.084Z,15.90
2023-01-10T21:39:56.183Z,31.80
2023-01-10T21:42:35.311Z,29.23
2023-01-10T21:45:02.189Z,27.10
2023-01-10T21:47:28.768Z,34.17
2023-01-10T21:49:55.330Z,28.00
2023-01-10T21:52:21.941Z,26.00
2023-01-10T21:54:48.597Z,33.30
2023-01-10T21:57:19.372Z,18.87
2023-01-10T21:59:46.005Z,20.37
2023-01-10T22:02:14.063Z,32.77
2023-01-10T22:04:41.606Z,24.27
2023-01-10T22:07:08.148Z,21.73
2023-01-10T22:09:36.410Z,14.40
2023-01-10T22:12:03.065Z,12.93
2023-01-10T22:14:29.496Z,13.80
2023-01-10T22:16:55.926Z,20.50
2023-01-10T22:19:22.432Z,13.60
2023-01-10T22:21:48.866Z,21.73
2023-01-10T22:24:15.332Z,12.67
2023-01-10T22:26:41.806Z,9.40
2023-01-10T22:29:08.227Z,14.07
2023-01-10T22:31:34.775Z,8.53
2023-01-10T22:34:01.278Z,8.00
2023-01-10T22:36:30.267Z,7.50
2023-01-10T22:38:56.668Z,8.07
2023-01-10T22:41:27.469Z,9.20
2023-01-10T22:43:54.439Z,8.53
2023-01-10T22:46:21.181Z,8.27
2023-01-10T22:48:48.100Z,8.10
2023-01-10T22:51:15.129Z,8.27
2023-01-10T22:53:41.747Z,7.17
2023-01-10T22:56:10.677Z,7.40
2023-01-10T22:58:37.568Z,8.43
2023-01-10T23:01:04.614Z,6.97
2023-01-10T23:03:31.266Z,7.17
2023-01-10T23:05:58.259Z,7.30
2023-01-10T23:08:25.715Z,7.77
2023-01-10T23:10:54.075Z,8.10
2023-01-10T23:13:21.266Z,7.93
2023-01-10T23:15:55.084Z,9.03
2023-01-10T23:18:21.572Z,7.40
2023-01-10T23:20:48.641Z,7.40
2023-01-10T23:23:15.116Z,8.33
2023-01-10T23:25:41.563Z,7.80
2023-01-10T23:28:08.015Z,7.50
2023-01-10T23:30:34.517Z,8.40
2023-01-10T23:33:01.102Z,7.40
2023-01-10T23:35:27.671Z,6.17
2023-01-10T23:37:54.282Z,6.53
2023-01-10T23:40:20.899Z,6.30
2023-01-10T23:42:47.415Z,5.80
2023-01-10T23:45:13.926Z,6.60
2023-01-10T23:47:40.393Z,5.90
2023-01-10T23:50:07.105Z,5.70
2023-01-10T23:52:33.638Z,5.70
2023-01-10T23:55:00.134Z,6.30
2023-01-10T23:57:26.618Z,5.90
2023-01-10T23:59:53.141Z,4.83
